sensor_id;sensor_type;location;lat;lon;timestamp;temperature;humidity
23371;DHT22;11858;51.056;3.712;2023-04-01T00:00:55;10.30;99.90
23371;DHT22;11858;51.056;3.712;2023-04-01T00:03:22;10.30;99.90
23371;DHT22;11858;51.056;3.712;2023-04-01T00:05:48;10.30;99.90
23371;DHT22;11858;51.056;3.712;2023-04-01T00:08:14;10.30;99.90
23371;DHT22;11858;51.056;3.712;2023-04-01T00:10:40;10.30;99.90
23371;DHT22;11858;51.056;3.712;2023-04-01T00:13:06;10.20;99.90
23371;DHT22;11858;51.056;3.712;2023-04-01T00:15:32;10.20;99.90
23371;DHT22;11858;51.056;3.712;2023-04-01T00:17:59;10.20;99.90
23371;DHT22;11858;51.056;3.712;2023-04-01T00:20:25;10.20;99.90
23371;DHT22;11858;51.056;3.712;2023-04-01T00:22:51;10.30;99.90
23371;DHT22;11858;51.056;3.712;2023-04-01T00:25:16;10.20;99.90
23371;DHT22;11858;51.056;3.712;2023-04-01T00:27:42;10.20;99.90
23371;DHT22;11858;51.056;3.712;2023-04-01T00:30:08;10.30;99.90
23371;DHT22;11858;51.056;3.712;2023-04-01T00:32:34;10.20;99.90
23371;DHT22;11858;51.056;3.712;2023-04-01T00:35:01;10.20;99.90
23371;DHT22;11858;51.056;3.712;2023-04-01T00:37:27;10.20;99.90
23371;DHT22;11858;51.056;3.712;2023-04-01T00:39:54;10.10;99.90
23371;DHT22;11858;51.056;3.712;2023-04-01T00:42:20;10.10;99.90
23371;DHT22;11858;51.056;3.712;2023-04-01T00:44:50;10.00;99.90
23371;DHT22;11858;51.056;3.712;2023-04-01T00:47:16;10.10;99.90
23371;DHT22;11858;51.056;3.712;2023-04-01T00:49:45;10.10;99.90
23371;DHT22;11858;51.056;3.712;2023-04-01T00:52:15;10.10;99.90
23371;DHT22;11858;51.056;3.712;2023-04-01T00:54:43;10.10;99.90
23371;DHT22;11858;51.056;3.712;2023-04-01T00:59:46;10.10;99.90
23371;DHT22;11858;51.056;3.712;2023-04-01T01:02:13;10.20;99.90
23371;DHT22;11858;51.056;3.712;2023-04-01T01:04:40;10.10;99.90
23371;DHT22;11858;51.056;3.712;2023-04-01T01:10:19;10.00;99.90
23371;DHT22;11858;51.056;3.712;2023-04-01T01:18:19;10.10;99.90
23371;DHT22;11858;51.056;3.712;2023-04-01T01:36:53;10.00;99.90
23371;DHT22;11858;51.056;3.712;2023-04-01T01:39:24;9.90;99.90
23371;DHT22;11858;51.056;3.712;2023-04-01T01:41:53;9.90;99.90
23371;DHT22;11858;51.056;3.712;2023-04-01T01:44:21;9.90;99.90
23371;DHT22;11858;51.056;3.712;2023-04-01T01:46:48;9.90;99.90
23371;DHT22;11858;51.056;3.712;2023-04-01T01:49:15;9.90;99.90
23371;DHT22;11858;51.056;3.712;2023-04-01T01:51:43;9.90;99.90
23371;DHT22;11858;51.056;3.712;2023-04-01T01:54:13;9.90;99.90
23371;DHT22;11858;51.056;3.712;2023-04-01T01:56:41;10.00;99.90
23371;DHT22;11858;51.056;3.712;2023-04-01T01:59:10;9.80;99.90
23371;DHT22;11858;51.056;3.712;2023-04-01T02:01:40;9.80;99.90
23371;DHT22;11858;51.056;3.712;2023-04-01T02:04:08;9.80;99.90
23371;DHT22;11858;51.056;3.712;2023-04-01T02:06:38;9.80;99.90
23371;DHT22;11858;51.056;3.712;2023-04-01T02:09:09;9.80;99.90
23371;DHT22;11858;51.056;3.712;2023-04-01T02:11:38;9.80;99.90
23371;DHT22;11858;51.056;3.712;2023-04-01T02:14:10;9.90;99.90
23371;DHT22;11858;51.056;3.712;2023-04-01T02:17:07;10.00;99.90
23371;DHT22;11858;51.056;3.712;2023-04-01T02:19:43;10.00;99.90
23371;DHT22;11858;51.056;3.712;2023-04-01T02:22:14;9.90;99.90
23371;DHT22;11858;51.056;3.712;2023-04-01T02:24:42;9.80;99.90
23371;DHT22;11858;51.056;3.712;2023-04-01T02:27:12;9.80;99.90
23371;DHT22;11858;51.056;3.712;2023-04-01T02:29:38;9.90;99.90
23371;DHT22;11858;51.056;3.712;2023-04-01T02:32:05;9.90;99.90
23371;DHT22;11858;51.056;3.712;2023-04-01T02:34:31;10.00;99.90
23371;DHT22;11858;51.056;3.712;2023-04-01T02:36:58;10.10;99.90
23371;DHT22;11858;51.056;3.712;2023-04-01T02:39:24;10.00;99.90
23371;DHT22;11858;51.056;3.712;2023-04-01T02:41:52;10.00;99.90
23371;DHT22;11858;51.056;3.712;2023-04-01T02:44:18;10.00;99.90
23371;DHT22;11858;51.056;3.712;2023-04-01T02:46:44;10.00;99.90
23371;DHT22;11858;51.056;3.712;2023-04-01T02:49:10;10.10;99.90
23371;DHT22;11858;51.056;3.712;2023-04-01T02:51:36;10.10;99.90
23371;DHT22;11858;51.056;3.712;2023-04-01T02:54:02;10.00;99.90
23371;DHT22;11858;51.056;3.712;2023-04-01T02:56:28;10.10;99.90
23371;DHT22;11858;51.056;3.712;2023-04-01T02:58:55;10.10;99.90
23371;DHT22;11858;51.056;3.712;2023-04-01T03:01:21;10.10;99.90
23371;DHT22;11858;51.056;3.712;2023-04-01T03:03:47;10.00;99.90
23371;DHT22;11858;51.056;3.712;2023-04-01T03:06:15;9.90;99.90
23371;DHT22;11858;51.056;3.712;2023-04-01T03:08:41;10.00;99.90
23371;DHT22;11858;51.056;3.712;2023-04-01T03:11:07;10.00;99.90
23371;DHT22;11858;51.056;3.712;2023-04-01T03:13:33;9.90;99.90
23371;DHT22;11858;51.056;3.712;2023-04-01T03:15:59;9.90;99.90
23371;DHT22;11858;51.056;3.712;2023-04-01T03:18:24;9.90;99.90
23371;DHT22;11858;51.056;3.712;2023-04-01T03:20:50;9.90;99.90
23371;DHT22;11858;51.056;3.712;2023-04-01T03:23:16;9.90;99.90
23371;DHT22;11858;51.056;3.712;2023-04-01T03:25:45;10.00;99.90
23371;DHT22;11858;51.056;3.712;2023-04-01T03:28:10;9.90;99.90
23371;DHT22;11858;51.056;3.712;2023-04-01T03:30:37;9.90;99.90
23371;DHT22;11858;51.056;3.712;2023-04-01T03:33:03;9.90;99.90
23371;DHT22;11858;51.056;3.712;2023-04-01T03:35:29;9.90;99.90
23371;DHT22;11858;51.056;3.712;2023-04-01T03:37:55;10.10;99.90
23371;DHT22;11858;51.056;3.712;2023-04-01T03:40:21;10.10;99.90
23371;DHT22;11858;51.056;3.712;2023-04-01T03:42:47;10.10;99.90
23371;DHT22;11858;51.056;3.712;2023-04-01T03:45:13;10.10;99.90
23371;DHT22;11858;51.056;3.712;2023-04-01T03:47:39;10.10;99.90
23371;DHT22;11858;51.056;3.712;2023-04-01T03:50:06;10.00;99.90
23371;DHT22;11858;51.056;3.712;2023-04-01T03:52:33;9.90;99.90
23371;DHT22;11858;51.056;3.712;2023-04-01T03:54:58;10.00;99.90
23371;DHT22;11858;51.056;3.712;2023-04-01T03:57:24;10.00;99.90
23371;DHT22;11858;51.056;3.712;2023-04-01T03:59:50;9.90;99.90
23371;DHT22;11858;51.056;3.712;2023-04-01T04:02:16;9.90;99.90
23371;DHT22;11858;51.056;3.712;2023-04-01T04:04:42;9.90;99.90
23371;DHT22;11858;51.056;3.712;2023-04-01T04:07:08;9.80;99.90
23371;DHT22;11858;51.056;3.712;2023-04-01T04:09:34;9.80;99.90
23371;DHT22;11858;51.056;3.712;2023-04-01T04:12:00;9.80;99.90
23371;DHT22;11858;51.056;3.712;2023-04-01T04:14:26;9.80;99.90
23371;DHT22;11858;51.056;3.712;2023-04-01T04:16:52;9.80;99.90
23371;DHT22;11858;51.056;3.712;2023-04-01T04:19:19;9.80;99.90
23371;DHT22;11858;51.056;3.712;2023-04-01T04:21:44;10.00;99.90
23371;DHT22;11858;51.056;3.712;2023-04-01T04:24:10;9.90;99.90
23371;DHT22;11858;51.056;3.712;2023-04-01T04:26:36;9.90;99.90
23371;DHT22;11858;51.056;3.712;2023-04-01T04:29:02;10.00;99.90
23371;DHT22;11858;51.056;3.712;2023-04-01T04:31:28;10.00;99.90
23371;DHT22;11858;51.056;3.712;2023-04-01T04:33:54;9.90;99.90
23371;DHT22;11858;51.056;3.712;2023-04-01T04:36:21;9.80;99.90
23371;DHT22;11858;51.056;3.712;2023-04-01T04:38:47;9.80;99.90
23371;DHT22;11858;51.056;3.712;2023-04-01T04:41:17;9.80;99.90
23371;DHT22;11858;51.056;3.712;2023-04-01T04:43:50;9.80;99.90
23371;DHT22;11858;51.056;3.712;2023-04-01T04:46:16;9.80;99.90
23371;DHT22;11858;51.056;3.712;2023-04-01T04:48:42;9.90;99.90
23371;DHT22;11858;51.056;3.712;2023-04-01T04:51:13;9.90;99.90
23371;DHT22;11858;51.056;3.712;2023-04-01T04:53:39;9.80;99.90
23371;DHT22;11858;51.056;3.712;2023-04-01T04:56:06;9.80;99.90
23371;DHT22;11858;51.056;3.712;2023-04-01T04:58:31;9.80;99.90
23371;DHT22;11858;51.056;3.712;2023-04-01T05:00:57;9.70;99.90
23371;DHT22;11858;51.056;3.712;2023-04-01T05:03:23;9.70;99.90
23371;DHT22;11858;51.056;3.712;2023-04-01T05:05:51;9.80;99.90
23371;DHT22;11858;51.056;3.712;2023-04-01T05:08:17;9.80;99.90
23371;DHT22;11858;51.056;3.712;2023-04-01T05:10:43;9.80;99.90
23371;DHT22;11858;51.056;3.712;2023-04-01T05:13:10;9.80;99.90
23371;DHT22;11858;51.056;3.712;2023-04-01T05:15:36;9.90;99.90
23371;DHT22;11858;51.056;3.712;2023-04-01T05:18:03;9.80;99.90
23371;DHT22;11858;51.056;3.712;2023-04-01T05:20:29;9.80;99.90
23371;DHT22;11858;51.056;3.712;2023-04-01T05:22:58;9.80;99.90
23371;DHT22;11858;51.056;3.712;2023-04-01T05:25:25;9.80;99.90
23371;DHT22;11858;51.056;3.712;2023-04-01T05:27:51;9.80;99.90
23371;DHT22;11858;51.056;3.712;2023-04-01T05:30:17;9.70;99.90
23371;DHT22;11858;51.056;3.712;2023-04-01T05:32:43;9.70;99.90
23371;DHT22;11858;51.056;3.712;2023-04-01T05:35:10;9.60;99.90
23371;DHT22;11858;51.056;3.712;2023-04-01T05:37:36;9.70;99.90
23371;DHT22;11858;51.056;3.712;2023-04-01T05:40:03;9.60;99.90
23371;DHT22;11858;51.056;3.712;2023-04-01T05:42:30;9.60;99.90
23371;DHT22;11858;51.056;3.712;2023-04-01T05:44:55;9.70;99.90
23371;DHT22;11858;51.056;3.712;2023-04-01T05:47:22;9.70;99.90
23371;DHT22;11858;51.056;3.712;2023-04-01T05:49:48;9.70;99.90
23371;DHT22;11858;51.056;3.712;2023-04-01T05:52:14;9.70;99.90
23371;DHT22;11858;51.056;3.712;2023-04-01T05:54:40;9.70;99.90
23371;DHT22;11858;51.056;3.712;2023-04-01T05:57:05;9.70;99.90
23371;DHT22;11858;51.056;3.712;2023-04-01T05:59:31;9.60;99.90
23371;DHT22;11858;51.056;3.712;2023-04-01T06:01:57;9.60;99.90
23371;DHT22;11858;51.056;3.712;2023-04-01T06:04:23;9.70;99.90
23371;DHT22;11858;51.056;3.712;2023-04-01T06:06:50;9.60;99.90
23371;DHT22;11858;51.056;3.712;2023-04-01T06:09:19;9.60;99.90
23371;DHT22;11858;51.056;3.712;2023-04-01T06:24:05;9.60;99.90
23371;DHT22;11858;51.056;3.712;2023-04-01T06:29:41;9.50;99.90
23371;DHT22;11858;51.056;3.712;2023-04-01T06:37:48;9.60;99.90
23371;DHT22;11858;51.056;3.712;2023-04-01T06:43:04;9.60;99.90
23371;DHT22;11858;51.056;3.712;2023-04-01T06:48:39;9.70;99.90
23371;DHT22;11858;51.056;3.712;2023-04-01T06:56:37;9.70;99.90
23371;DHT22;11858;51.056;3.712;2023-04-01T06:59:12;9.60;99.90
23371;DHT22;11858;51.056;3.712;2023-04-01T07:01:51;9.70;99.90
23371;DHT22;11858;51.056;3.712;2023-04-01T07:06:54;9.70;99.90
23371;DHT22;11858;51.056;3.712;2023-04-01T07:09:38;9.70;99.90
23371;DHT22;11858;51.056;3.712;2023-04-01T07:14:59;9.70;99.90
23371;DHT22;11858;51.056;3.712;2023-04-01T07:17:32;9.60;99.90
23371;DHT22;11858;51.056;3.712;2023-04-01T07:22:52;9.70;99.90
23371;DHT22;11858;51.056;3.712;2023-04-01T07:25:24;9.70;99.90
23371;DHT22;11858;51.056;3.712;2023-04-01T07:27:52;9.70;99.90
23371;DHT22;11858;51.056;3.712;2023-04-01T07:30:21;9.80;99.90
23371;DHT22;11858;51.056;3.712;2023-04-01T07:32:58;9.80;99.90
23371;DHT22;11858;51.056;3.712;2023-04-01T07:38:08;9.90;99.90
23371;DHT22;11858;51.056;3.712;2023-04-01T07:46:03;10.00;99.90
23371;DHT22;11858;51.056;3.712;2023-04-01T07:48:39;9.90;99.90
23371;DHT22;11858;51.056;3.712;2023-04-01T07:59:43;9.90;99.90
23371;DHT22;11858;51.056;3.712;2023-04-01T08:07:52;10.00;99.90
23371;DHT22;11858;51.056;3.712;2023-04-01T08:10:39;10.00;99.90
23371;DHT22;11858;51.056;3.712;2023-04-01T08:23:48;10.30;99.90
23371;DHT22;11858;51.056;3.712;2023-04-01T08:26:45;10.30;99.90
23371;DHT22;11858;51.056;3.712;2023-04-01T08:29:15;10.20;99.90
23371;DHT22;11858;51.056;3.712;2023-04-01T08:34:26;10.30;99.90
23371;DHT22;11858;51.056;3.712;2023-04-01T08:37:19;10.20;99.90
23371;DHT22;11858;51.056;3.712;2023-04-01T08:39:54;10.20;99.90
23371;DHT22;11858;51.056;3.712;2023-04-01T08:42:31;10.10;99.90
23371;DHT22;11858;51.056;3.712;2023-04-01T08:59:09;10.30;99.90
23371;DHT22;11858;51.056;3.712;2023-04-01T09:09:57;10.30;99.90
23371;DHT22;11858;51.056;3.712;2023-04-01T09:24:08;10.70;99.90
23371;DHT22;11858;51.056;3.712;2023-04-01T09:37:54;10.60;99.90
23371;DHT22;11858;51.056;3.712;2023-04-01T09:40:31;10.60;99.90
23371;DHT22;11858;51.056;3.712;2023-04-01T09:46:06;10.70;99.90
23371;DHT22;11858;51.056;3.712;2023-04-01T09:51:24;10.60;99.90
23371;DHT22;11858;51.056;3.712;2023-04-01T10:14:03;11.10;99.90
23371;DHT22;11858;51.056;3.712;2023-04-01T10:22:40;10.90;99.90
23371;DHT22;11858;51.056;3.712;2023-04-01T10:42:19;11.40;99.90
23371;DHT22;11858;51.056;3.712;2023-04-01T10:45:24;11.30;99.90
23371;DHT22;11858;51.056;3.712;2023-04-01T10:56:40;11.60;99.90
23371;DHT22;11858;51.056;3.712;2023-04-01T11:17:04;11.20;99.90
23371;DHT22;11858;51.056;3.712;2023-04-01T11:22:35;11.30;99.90
23371;DHT22;11858;51.056;3.712;2023-04-01T11:28:16;11.50;99.90
23371;DHT22;11858;51.056;3.712;2023-04-01T11:36:30;11.10;99.90
23371;DHT22;11858;51.056;3.712;2023-04-01T11:39:15;11.10;99.90
23371;DHT22;11858;51.056;3.712;2023-04-01T11:42:09;11.00;99.90
23371;DHT22;11858;51.056;3.712;2023-04-01T11:55:51;11.20;99.90
23371;DHT22;11858;51.056;3.712;2023-04-01T11:58:51;11.30;99.90
23371;DHT22;11858;51.056;3.712;2023-04-01T12:01:27;11.20;99.90
23371;DHT22;11858;51.056;3.712;2023-04-01T12:04:22;11.20;99.90
23371;DHT22;11858;51.056;3.712;2023-04-01T12:09:52;11.10;99.90
23371;DHT22;11858;51.056;3.712;2023-04-01T12:15:41;11.10;99.90
23371;DHT22;11858;51.056;3.712;2023-04-01T12:18:42;11.00;99.90
23371;DHT22;11858;51.056;3.712;2023-04-01T12:21:09;11.20;99.90
23371;DHT22;11858;51.056;3.712;2023-04-01T12:23:42;11.30;99.90
23371;DHT22;11858;51.056;3.712;2023-04-01T12:32:02;11.60;99.90
23371;DHT22;11858;51.056;3.712;2023-04-01T12:49:53;11.10;99.90
23371;DHT22;11858;51.056;3.712;2023-04-01T12:52:10;11.10;99.90
23371;DHT22;11858;51.056;3.712;2023-04-01T12:54:48;11.10;99.90
23371;DHT22;11858;51.056;3.712;2023-04-01T12:57:55;11.20;99.90
23371;DHT22;11858;51.056;3.712;2023-04-01T13:11:20;11.20;99.90
23371;DHT22;11858;51.056;3.712;2023-04-01T13:14:05;10.90;99.90
23371;DHT22;11858;51.056;3.712;2023-04-01T13:16:42;10.90;99.90
23371;DHT22;11858;51.056;3.712;2023-04-01T13:19:32;10.90;99.90
23371;DHT22;11858;51.056;3.712;2023-04-01T13:22:11;10.90;99.90
23371;DHT22;11858;51.056;3.712;2023-04-01T13:27:42;11.10;99.90
23371;DHT22;11858;51.056;3.712;2023-04-01T13:41:11;11.20;99.90
23371;DHT22;11858;51.056;3.712;2023-04-01T13:43:42;11.20;99.90
23371;DHT22;11858;51.056;3.712;2023-04-01T13:46:35;11.20;99.90
23371;DHT22;11858;51.056;3.712;2023-04-01T13:52:08;11.40;99.90
23371;DHT22;11858;51.056;3.712;2023-04-01T14:03:56;11.30;99.90
23371;DHT22;11858;51.056;3.712;2023-04-01T14:06:34;11.20;99.90
23371;DHT22;11858;51.056;3.712;2023-04-01T14:14:52;11.00;99.90
23371;DHT22;11858;51.056;3.712;2023-04-01T14:17:40;11.00;99.90
23371;DHT22;11858;51.056;3.712;2023-04-01T14:29:03;11.00;99.90
23371;DHT22;11858;51.056;3.712;2023-04-01T14:31:57;11.10;99.90
23371;DHT22;11858;51.056;3.712;2023-04-01T14:34:43;11.20;99.90
23371;DHT22;11858;51.056;3.712;2023-04-01T14:45:44;11.10;99.90
23371;DHT22;11858;51.056;3.712;2023-04-01T14:50:57;11.10;99.90
23371;DHT22;11858;51.056;3.712;2023-04-01T14:53:35;11.00;99.90
23371;DHT22;11858;51.056;3.712;2023-04-01T14:56:04;11.20;99.90
23371;DHT22;11858;51.056;3.712;2023-04-01T14:58:59;11.20;99.90
23371;DHT22;11858;51.056;3.712;2023-04-01T15:01:46;11.00;99.90
23371;DHT22;11858;51.056;3.712;2023-04-01T15:04:41;11.10;99.90
23371;DHT22;11858;51.056;3.712;2023-04-01T15:12:30;10.90;99.90
23371;DHT22;11858;51.056;3.712;2023-04-01T15:24:07;11.00;99.90
23371;DHT22;11858;51.056;3.712;2023-04-01T15:40:45;10.80;99.90
23371;DHT22;11858;51.056;3.712;2023-04-01T15:46:47;10.70;99.90
23371;DHT22;11858;51.056;3.712;2023-04-01T15:51:56;10.70;99.90
23371;DHT22;11858;51.056;3.712;2023-04-01T15:57:41;10.60;99.90
23371;DHT22;11858;51.056;3.712;2023-04-01T16:11:22;10.60;99.90
23371;DHT22;11858;51.056;3.712;2023-04-01T16:19:49;10.60;99.90
23371;DHT22;11858;51.056;3.712;2023-04-01T16:25:36;10.60;99.90
23371;DHT22;11858;51.056;3.712;2023-04-01T16:28:31;10.50;99.90
23371;DHT22;11858;51.056;3.712;2023-04-01T16:31:23;10.40;99.90
23371;DHT22;11858;51.056;3.712;2023-04-01T16:34:17;10.20;99.90
23371;DHT22;11858;51.056;3.712;2023-04-01T16:37:05;10.20;99.90
23371;DHT22;11858;51.056;3.712;2023-04-01T16:51:02;10.20;99.90
23371;DHT22;11858;51.056;3.712;2023-04-01T16:53:17;10.10;99.90
23371;DHT22;11858;51.056;3.712;2023-04-01T16:58:35;10.10;99.90
23371;DHT22;11858;51.056;3.712;2023-04-01T17:01:14;10.10;99.90
23371;DHT22;11858;51.056;3.712;2023-04-01T17:03:46;10.20;99.90
23371;DHT22;11858;51.056;3.712;2023-04-01T17:11:39;10.00;99.90
23371;DHT22;11858;51.056;3.712;2023-04-01T17:22:25;10.00;99.90
23371;DHT22;11858;51.056;3.712;2023-04-01T17:30:36;10.10;99.90
23371;DHT22;11858;51.056;3.712;2023-04-01T17:33:20;9.90;99.90
23371;DHT22;11858;51.056;3.712;2023-04-01T17:41:46;9.80;99.90
23371;DHT22;11858;51.056;3.712;2023-04-01T17:47:46;9.70;99.90
23371;DHT22;11858;51.056;3.712;2023-04-01T17:50:42;9.70;99.90
23371;DHT22;11858;51.056;3.712;2023-04-01T17:58:29;9.80;99.90
23371;DHT22;11858;51.056;3.712;2023-04-01T18:01:24;9.70;99.90
23371;DHT22;11858;51.056;3.712;2023-04-01T18:17:17;9.60;99.90
23371;DHT22;11858;51.056;3.712;2023-04-01T18:25:48;9.50;99.90
23371;DHT22;11858;51.056;3.712;2023-04-01T18:31:07;9.40;99.90
23371;DHT22;11858;51.056;3.712;2023-04-01T18:39:19;9.40;99.90
23371;DHT22;11858;51.056;3.712;2023-04-01T18:44:48;9.50;99.90
23371;DHT22;11858;51.056;3.712;2023-04-01T18:50:22;9.60;99.90
23371;DHT22;11858;51.056;3.712;2023-04-01T18:53:39;9.50;99.90
23371;DHT22;11858;51.056;3.712;2023-04-01T18:55:53;9.60;99.90
23371;DHT22;11858;51.056;3.712;2023-04-01T18:58:59;9.50;99.90
23371;DHT22;11858;51.056;3.712;2023-04-01T19:04:30;9.60;99.90
23371;DHT22;11858;51.056;3.712;2023-04-01T19:07:21;9.60;99.90
23371;DHT22;11858;51.056;3.712;2023-04-01T19:09:47;9.50;99.90
23371;DHT22;11858;51.056;3.712;2023-04-01T19:25:58;9.50;99.90
23371;DHT22;11858;51.056;3.712;2023-04-01T19:28:55;9.40;99.90
23371;DHT22;11858;51.056;3.712;2023-04-01T19:34:25;9.40;99.90
23371;DHT22;11858;51.056;3.712;2023-04-01T19:37:09;9.40;99.90
23371;DHT22;11858;51.056;3.712;2023-04-01T19:39:50;9.50;99.90
23371;DHT22;11858;51.056;3.712;2023-04-01T19:42:41;9.40;99.90
23371;DHT22;11858;51.056;3.712;2023-04-01T19:45:40;9.50;99.90
23371;DHT22;11858;51.056;3.712;2023-04-01T19:48:30;9.40;99.90
23371;DHT22;11858;51.056;3.712;2023-04-01T20:00:05;9.40;99.90
23371;DHT22;11858;51.056;3.712;2023-04-01T20:02:38;9.40;99.90
23371;DHT22;11858;51.056;3.712;2023-04-01T20:07:53;9.30;99.90
23371;DHT22;11858;51.056;3.712;2023-04-01T20:16:03;9.40;99.90
23371;DHT22;11858;51.056;3.712;2023-04-01T20:18:54;9.40;99.90
23371;DHT22;11858;51.056;3.712;2023-04-01T20:21:34;9.40;99.90
23371;DHT22;11858;51.056;3.712;2023-04-01T20:27:10;9.40;99.90
23371;DHT22;11858;51.056;3.712;2023-04-01T20:38:09;9.40;99.90
23371;DHT22;11858;51.056;3.712;2023-04-01T20:40:45;9.30;99.90
23371;DHT22;11858;51.056;3.712;2023-04-01T20:43:32;9.40;99.90
23371;DHT22;11858;51.056;3.712;2023-04-01T20:46:22;9.40;99.90
23371;DHT22;11858;51.056;3.712;2023-04-01T20:49:38;9.30;99.90
23371;DHT22;11858;51.056;3.712;2023-04-01T21:16:47;9.40;99.90
23371;DHT22;11858;51.056;3.712;2023-04-01T21:22:21;9.30;99.90
23371;DHT22;11858;51.056;3.712;2023-04-01T21:47:35;9.40;99.90
23371;DHT22;11858;51.056;3.712;2023-04-01T21:55:28;9.40;99.90
23371;DHT22;11858;51.056;3.712;2023-04-01T22:00:38;9.40;99.90
23371;DHT22;11858;51.056;3.712;2023-04-01T22:06:16;9.50;99.90
23371;DHT22;11858;51.056;3.712;2023-04-01T22:08:56;9.50;99.90
23371;DHT22;11858;51.056;3.712;2023-04-01T22:11:37;9.50;99.90
23371;DHT22;11858;51.056;3.712;2023-04-01T22:16:59;9.50;99.90
23371;DHT22;11858;51.056;3.712;2023-04-01T22:22:31;9.40;99.90
23371;DHT22;11858;51.056;3.712;2023-04-01T22:25:14;9.40;99.90
23371;DHT22;11858;51.056;3.712;2023-04-01T22:30:50;9.30;99.90
23371;DHT22;11858;51.056;3.712;2023-04-01T22:33:22;9.30;99.90
23371;DHT22;11858;51.056;3.712;2023-04-01T22:44:01;9.40;99.90
23371;DHT22;11858;51.056;3.712;2023-04-01T22:49:29;9.40;99.90
23371;DHT22;11858;51.056;3.712;2023-04-01T22:52:03;9.30;99.90
23371;DHT22;11858;51.056;3.712;2023-04-01T22:54:44;9.40;99.90
23371;DHT22;11858;51.056;3.712;2023-04-01T23:00:14;9.20;99.90
23371;DHT22;11858;51.056;3.712;2023-04-01T23:02:45;9.20;99.90
23371;DHT22;11858;51.056;3.712;2023-04-01T23:05:15;9.30;99.90
23371;DHT22;11858;51.056;3.712;2023-04-01T23:10:27;9.20;99.90
23371;DHT22;11858;51.056;3.712;2023-04-01T23:12:59;9.30;99.90
23371;DHT22;11858;51.056;3.712;2023-04-01T23:15:28;9.30;99.90
23371;DHT22;11858;51.056;3.712;2023-04-01T23:28:43;9.20;99.90
23371;DHT22;11858;51.056;3.712;2023-04-01T23:37:04;9.20;99.90
23371;DHT22;11858;51.056;3.712;2023-04-01T23:39:39;9.30;99.90
23371;DHT22;11858;51.056;3.712;2023-04-01T23:44:55;9.30;99.90
23371;DHT22;11858;51.056;3.712;2023-04-01T23:47:29;9.30;99.90
23371;DHT22;11858;51.056;3.712;2023-04-01T23:50:20;9.30;99.90
23371;DHT22;11858;51.056;3.712;2023-04-01T23:53:33;9.30;99.90
23371;DHT22;11858;51.056;3.712;2023-04-01T23:55:34;9.30;99.90
